createdAt,value
2019-04-11T00:01:53.456Z,16.93
2019-04-11T00:04:24.260Z,18.73
2019-04-11T00:06:56.023Z,20.73
2019-04-11T00:09:27.004Z,18.97
2019-04-11T00:11:57.890Z,15.23
2019-04-11T00:14:29.566Z,21.17
2019-04-11T00:17:00.157Z,12.70
2019-04-11T00:19:31.468Z,20.73
2019-04-11T00:22:02.079Z,16.23
2019-04-11T00:24:32.541Z,21.43
2019-04-11T00:27:03.079Z,20.97
2019-04-11T00:29:34.452Z,17.67
2019-04-11T00:32:07.438Z,19.10
2019-04-11T00:34:37.328Z,24.13
2019-04-11T00:37:08.621Z,32.13
2019-04-11T00:39:40.193Z,20.63
2019-04-11T00:42:10.593Z,20.67
2019-04-11T00:44:41.208Z,20.50
2019-04-11T00:47:11.654Z,17.50
2019-04-11T00:49:42.930Z,16.87
2019-04-11T00:52:14.245Z,21.47
2019-04-11T00:54:44.936Z,19.40
2019-04-11T00:57:15.354Z,17.17
2019-04-11T00:59:46.777Z,15.67
2019-04-11T01:02:17.713Z,14.97
2019-04-11T01:04:48.779Z,15.23
2019-04-11T01:07:19.280Z,19.20
2019-04-11T01:09:50.613Z,16.33
2019-04-11T01:12:21.121Z,13.97
2019-04-11T01:14:51.584Z,22.33
2019-04-11T01:17:23.251Z,21.77
2019-04-11T01:19:53.757Z,15.80
2019-04-11T01:22:24.411Z,24.93
2019-04-11T01:24:55.777Z,20.50
2019-04-11T01:27:26.804Z,18.60
2019-04-11T01:29:57.805Z,17.17
2019-04-11T01:32:28.502Z,10.87
2019-04-11T01:34:59.186Z,12.80
2019-04-11T01:37:29.688Z,25.20
2019-04-11T01:40:02.398Z,19.13
2019-04-11T01:42:33.440Z,19.63
2019-04-11T01:45:05.241Z,20.30
2019-04-11T01:47:57.293Z,22.53
2019-04-11T01:50:31.345Z,23.23
2019-04-11T01:53:02.604Z,18.73
2019-04-11T01:55:33.234Z,19.10
2019-04-11T01:58:04.596Z,17.40
2019-04-11T02:00:54.649Z,23.57
2019-04-11T02:03:51.553Z,19.37
2019-04-11T02:06:23.655Z,24.10
2019-04-11T02:08:54.201Z,20.87
2019-04-11T02:11:25.569Z,31.27
2019-04-11T02:14:09.858Z,24.33
2019-04-11T02:16:29.280Z,25.83
2019-04-11T02:18:59.802Z,27.23
2019-04-11T02:21:30.585Z,23.90
2019-04-11T02:24:07.906Z,25.83
2019-04-11T02:26:38.567Z,26.13
2019-04-11T02:29:09.199Z,28.87
2019-04-11T02:31:39.821Z,33.23
2019-04-11T02:34:11.490Z,22.90
2019-04-11T02:36:42.995Z,26.97
2019-04-11T02:39:18.861Z,24.17
2019-04-11T02:41:46.835Z,21.10
2019-04-11T02:44:52.304Z,16.60
2019-04-11T02:46:58.062Z,25.83
2019-04-11T02:49:23.663Z,28.50
2019-04-11T02:51:55.996Z,15.87
2019-04-11T02:54:28.224Z,23.93
2019-04-11T02:57:00.626Z,17.50
2019-04-11T02:59:31.381Z,21.70
2019-04-11T03:02:01.948Z,28.70
2019-04-11T03:04:32.482Z,20.77
2019-04-11T03:07:03.958Z,24.27
2019-04-11T03:09:35.255Z,25.67
2019-04-11T03:12:07.430Z,22.20
2019-04-11T03:14:54.436Z,22.23
2019-04-11T03:17:17.410Z,24.53
2019-04-11T03:19:58.318Z,18.10
2019-04-11T03:22:15.963Z,20.07
2019-04-11T03:24:47.027Z,24.23
2019-04-11T03:27:19.928Z,22.90
2019-04-11T03:29:51.629Z,22.40
2019-04-11T03:33:27.735Z,19.00
2019-04-11T03:36:01.235Z,25.27
2019-04-11T03:37:53.927Z,18.63
2019-04-11T03:40:23.860Z,21.87
2019-04-11T03:42:47.983Z,20.23
2019-04-11T03:45:26.388Z,23.40
2019-04-11T03:47:48.364Z,19.30
2019-04-11T03:50:16.667Z,25.60
2019-04-11T03:52:43.041Z,13.10
2019-04-11T03:55:15.206Z,22.90
2019-04-11T03:57:46.997Z,25.00
2019-04-11T04:00:19.203Z,14.67
2019-04-11T04:02:50.188Z,20.70
2019-04-11T04:05:21.694Z,28.07
2019-04-11T04:07:52.464Z,22.27
2019-04-11T04:10:25.776Z,26.60
2019-04-11T04:12:58.073Z,20.23
2019-04-11T04:15:59.901Z,21.07
2019-04-11T04:18:40.357Z,21.97
2019-04-11T04:21:31.199Z,19.10
2019-04-11T04:24:03.961Z,25.53
2019-04-11T04:26:35.545Z,20.23
2019-04-11T04:29:07.514Z,23.00
2019-04-11T04:31:38.535Z,20.90
2019-04-11T04:34:09.538Z,18.50
2019-04-11T04:36:40.367Z,29.93
2019-04-11T04:39:12.452Z,19.47
2019-04-11T04:41:53.467Z,25.10
2019-04-11T04:44:19.038Z,23.70
2019-04-11T04:47:00.106Z,24.63
2019-04-11T04:49:23.187Z,19.93
2019-04-11T04:51:55.522Z,23.03
2019-04-11T04:54:25.758Z,29.17
2019-04-11T04:56:56.189Z,21.87
2019-04-11T04:59:28.193Z,27.30
2019-04-11T05:01:59.380Z,21.57
2019-04-11T05:04:31.657Z,24.03
2019-04-11T05:07:03.289Z,25.87
2019-04-11T05:09:34.002Z,27.47
2019-04-11T05:12:05.452Z,22.10
2019-04-11T05:14:37.277Z,26.33
2019-04-11T05:17:08.766Z,27.57
2019-04-11T05:19:40.365Z,21.83
2019-04-11T05:22:10.958Z,22.43
2019-04-11T05:24:41.465Z,27.30
2019-04-11T05:27:12.570Z,32.27
2019-04-11T05:29:43.934Z,25.57
2019-04-11T05:32:15.457Z,25.60
2019-04-11T05:34:46.188Z,22.23
2019-04-11T05:37:16.656Z,20.77
2019-04-11T05:39:48.179Z,22.30
2019-04-11T05:42:19.927Z,27.33
2019-04-11T05:44:51.500Z,23.53
2019-04-11T05:47:22.022Z,25.90
2019-04-11T05:50:15.841Z,30.63
2019-04-11T05:52:46.333Z,27.83
2019-04-11T05:55:17.660Z,43.90
2019-04-11T05:57:48.802Z,30.20
2019-04-11T06:00:36.733Z,32.57
2019-04-11T06:03:09.928Z,28.30
2019-04-11T06:06:08.641Z,30.03
2019-04-11T06:08:39.916Z,33.93
2019-04-11T06:11:24.153Z,34.80
2019-04-11T06:14:03.875Z,35.80
2019-04-11T06:16:39.589Z,34.20
2019-04-11T06:19:28.822Z,33.03
2019-04-11T06:22:04.778Z,37.53
2019-04-11T06:24:53.022Z,35.80
2019-04-11T06:27:42.703Z,34.00
2019-04-11T06:30:31.156Z,36.37
2019-04-11T06:33:16.574Z,31.60
2019-04-11T06:36:21.106Z,35.47
2019-04-11T06:39:21.028Z,34.03
2019-04-11T06:42:24.562Z,39.87
2019-04-11T06:45:19.705Z,31.43
2019-04-11T06:48:03.170Z,34.83
2019-04-11T06:50:52.487Z,31.37
2019-04-11T06:53:30.285Z,33.67
2019-04-11T06:56:14.041Z,30.17
2019-04-11T06:58:52.470Z,36.23
2019-04-11T07:01:25.827Z,37.90
2019-04-11T07:04:00.878Z,37.00
2019-04-11T07:06:33.140Z,33.17
2019-04-11T07:09:35.209Z,38.20
2019-04-11T07:12:13.370Z,36.23
2019-04-11T07:14:48.353Z,33.17
2019-04-11T07:17:37.405Z,34.63
2019-04-11T07:20:29.236Z,34.50
2019-04-11T07:23:17.388Z,34.43
2019-04-11T07:26:10.160Z,33.13
2019-04-11T07:28:56.858Z,35.07
2019-04-11T07:32:02.612Z,35.27
2019-04-11T07:34:52.602Z,40.33
2019-04-11T07:37:36.859Z,35.83
2019-04-11T07:40:29.384Z,36.17
2019-04-11T07:43:19.057Z,47.13
2019-04-11T07:46:17.972Z,29.20
2019-04-11T07:48:48.541Z,35.90
2019-04-11T07:51:27.609Z,35.77
2019-04-11T07:54:00.266Z,37.10
2019-04-11T07:56:42.128Z,35.93
2019-04-11T07:59:21.962Z,33.73
2019-04-11T08:02:10.350Z,34.73
2019-04-11T08:05:02.831Z,32.57
2019-04-11T08:07:55.127Z,30.63
2019-04-11T08:10:33.029Z,38.87
2019-04-11T08:13:07.278Z,29.87
2019-04-11T08:16:08.472Z,33.63
2019-04-11T08:18:55.452Z,32.07
2019-04-11T08:21:44.099Z,35.50
2019-04-11T08:24:20.985Z,28.93
2019-04-11T08:27:09.542Z,36.70
2019-04-11T08:29:40.184Z,28.90
2019-04-11T08:32:39.835Z,26.03
2019-04-11T08:35:40.167Z,34.63
2019-04-11T08:38:16.356Z,33.37
2019-04-11T08:40:53.256Z,30.43
2019-04-11T08:43:31.136Z,30.53
2019-04-11T08:46:06.728Z,32.77
2019-04-11T08:48:39.342Z,30.17
2019-04-11T08:51:09.905Z,31.67
2019-04-11T08:54:02.352Z,30.73
2019-04-11T08:56:32.775Z,36.57
2019-04-11T08:59:49.380Z,32.87
2019-04-11T09:02:42.849Z,34.07
2019-04-11T09:05:35.920Z,35.60
2019-04-11T09:08:44.713Z,31.60
2019-04-11T09:11:24.792Z,29.37
2019-04-11T09:14:24.278Z,31.77
2019-04-11T09:17:26.248Z,32.83
2019-04-11T09:20:34.276Z,30.60
2019-04-11T09:23:13.415Z,36.00
2019-04-11T09:26:12.002Z,34.27
2019-04-11T09:28:45.817Z,32.83
2019-04-11T09:31:41.969Z,30.73
2019-04-11T09:34:31.300Z,28.27
2019-04-11T09:37:23.743Z,34.20
2019-04-11T09:40:26.374Z,31.27
2019-04-11T09:43:22.149Z,32.23
2019-04-11T09:46:10.408Z,29.67
2019-04-11T09:48:58.638Z,27.47
2019-04-11T09:51:52.298Z,34.50
2019-04-11T09:55:00.845Z,29.93
2019-04-11T09:57:40.163Z,31.37
2019-04-11T10:00:28.856Z,29.67
2019-04-11T10:03:25.491Z,28.83
2019-04-11T10:06:28.131Z,26.57
2019-04-11T10:08:59.834Z,27.80
2019-04-11T10:11:56.748Z,26.10
2019-04-11T10:14:29.464Z,31.53
2019-04-11T10:17:17.673Z,28.60
2019-04-11T10:20:12.809Z,27.60
2019-04-11T10:23:20.806Z,27.57
2019-04-11T10:25:57.771Z,24.27
2019-04-11T10:29:02.497Z,28.43
2019-04-11T10:31:36.715Z,28.90
2019-04-11T10:34:29.920Z,27.57
2019-04-11T10:37:03.653Z,23.23
2019-04-11T10:40:00.088Z,26.77
2019-04-11T10:42:31.337Z,30.70
2019-04-11T10:45:31.087Z,22.83
2019-04-11T10:48:05.354Z,24.90
2019-04-11T10:50:54.049Z,22.80
2019-04-11T10:53:26.936Z,20.97
2019-04-11T10:56:26.358Z,22.60
2019-04-11T10:58:59.532Z,25.43
2019-04-11T11:01:48.493Z,25.47
2019-04-11T11:04:25.593Z,22.33
2019-04-11T11:07:00.067Z,27.53
2019-04-11T11:09:38.820Z,21.67
2019-04-11T11:12:29.505Z,25.70
2019-04-11T11:15:17.841Z,27.53
2019-04-11T11:18:33.338Z,25.57
2019-04-11T11:20:55.211Z,25.10
2019-04-11T11:23:40.930Z,24.85
2019-04-11T11:26:19.840Z,19.70
2019-04-11T11:29:13.092Z,23.02
2019-04-11T11:31:46.370Z,22.77
2019-04-11T11:34:28.434Z,22.15
2019-04-11T11:37:29.035Z,19.55
2019-04-11T11:40:18.792Z,22.67
2019-04-11T11:43:27.471Z,23.12
2019-04-11T11:46:32.136Z,20.32
2019-04-11T11:49:10.208Z,22.27
2019-04-11T11:51:51.914Z,21.75
2019-04-11T11:54:27.162Z,22.73
2019-04-11T11:56:59.940Z,27.95
2019-04-11T11:59:52.371Z,24.92
2019-04-11T12:02:51.888Z,26.95
2019-04-11T12:05:29.605Z,29.02
2019-04-11T12:08:15.354Z,23.60
2019-04-11T12:10:54.477Z,29.12
2019-04-11T12:13:40.753Z,26.55
2019-04-11T12:16:19.639Z,25.82
2019-04-11T12:18:55.034Z,27.62
2019-04-11T12:21:29.758Z,22.80
2019-04-11T12:24:32.193Z,26.17
2019-04-11T12:27:20.834Z,28.02
2019-04-11T12:30:09.510Z,24.45
2019-04-11T12:32:46.431Z,24.27
2019-04-11T12:35:25.702Z,20.77
2019-04-11T12:38:00.120Z,22.87
2019-04-11T12:40:52.458Z,23.18
2019-04-11T12:43:22.785Z,20.15
2019-04-11T12:46:10.478Z,23.38
2019-04-11T12:48:47.492Z,23.07
2019-04-11T12:51:36.867Z,24.40
2019-04-11T12:54:12.822Z,20.20
2019-04-11T12:57:05.060Z,25.95
2019-04-11T12:59:35.443Z,20.08
2019-04-11T13:02:26.804Z,22.37
2019-04-11T13:04:57.728Z,21.27
2019-04-11T13:07:45.891Z,25.02
2019-04-11T13:10:24.099Z,21.40
2019-04-11T13:13:19.507Z,19.02
2019-04-11T13:16:13.078Z,21.20
2019-04-11T13:19:00.400Z,22.30
2019-04-11T13:21:44.140Z,22.17
2019-04-11T13:24:33.538Z,21.70
2019-04-11T13:27:31.893Z,20.27
2019-04-11T13:30:20.035Z,16.50
2019-04-11T13:32:52.202Z,20.82
2019-04-11T13:35:40.041Z,18.95
2019-04-11T13:38:26.221Z,20.15
2019-04-11T13:41:14.068Z,18.52
2019-04-11T13:43:47.362Z,17.27
2019-04-11T13:46:48.921Z,22.95
2019-04-11T13:49:37.164Z,18.92
2019-04-11T13:52:29.417Z,20.85
2019-04-11T13:55:04.314Z,21.52
2019-04-11T13:57:59.645Z,20.50
2019-04-11T14:00:47.702Z,18.90
2019-04-11T14:03:49.139Z,19.77
2019-04-11T14:06:37.217Z,18.67
2019-04-11T14:09:38.128Z,23.67
2019-04-11T14:12:13.165Z,20.65
2019-04-11T14:14:51.950Z,17.73
2019-04-11T14:17:44.116Z,20.10
2019-04-11T14:20:50.003Z,16.42
2019-04-11T14:23:42.733Z,17.07
2019-04-11T14:26:38.239Z,18.95
2019-04-11T14:29:26.485Z,16.80
2019-04-11T14:32:04.694Z,18.35
2019-04-11T14:34:52.736Z,17.77
2019-04-11T14:37:42.009Z,15.13
2019-04-11T14:40:46.736Z,17.07
2019-04-11T14:43:25.147Z,15.30
2019-04-11T14:46:23.331Z,14.68
2019-04-11T14:49:10.465Z,16.12
2019-04-11T14:51:58.428Z,17.10
2019-04-11T14:54:35.066Z,19.15
2019-04-11T14:57:33.853Z,18.55
2019-04-11T15:00:25.163Z,18.55
2019-04-11T15:03:26.416Z,17.12
2019-04-11T15:06:14.859Z,19.95
2019-04-11T15:09:10.890Z,18.25
2019-04-11T15:11:52.792Z,18.17
2019-04-11T15:14:42.055Z,15.10
2019-04-11T15:17:15.276Z,16.25
2019-04-11T15:19:50.491Z,21.57
2019-04-11T15:22:46.111Z,16.30
2019-04-11T15:25:35.693Z,20.25
2019-04-11T15:28:19.332Z,17.80
2019-04-11T15:30:51.309Z,20.15
2019-04-11T15:33:52.478Z,15.30
2019-04-11T15:36:22.964Z,18.87
2019-04-11T15:39:12.327Z,16.20
2019-04-11T15:41:43.573Z,18.82
2019-04-11T15:44:45.438Z,20.68
2019-04-11T15:47:19.001Z,18.95
2019-04-11T15:50:10.047Z,20.52
2019-04-11T15:52:45.889Z,18.87
2019-04-11T15:55:38.204Z,20.43
2019-04-11T15:58:12.661Z,20.43
2019-04-11T16:01:06.540Z,20.25
2019-04-11T16:03:37.393Z,21.62
2019-04-11T16:06:26.123Z,20.05
2019-04-11T16:08:59.539Z,25.60
2019-04-11T16:11:51.778Z,20.23
2019-04-11T16:14:44.825Z,20.15
2019-04-11T16:17:36.962Z,19.67
2019-04-11T16:20:28.179Z,19.27
2019-04-11T16:23:16.116Z,21.52
2019-04-11T16:25:56.165Z,18.55
2019-04-11T16:28:45.536Z,18.67
2019-04-11T16:31:15.968Z,19.50
2019-04-11T16:33:54.999Z,20.68
2019-04-11T16:36:37.451Z,21.57
2019-04-11T16:39:28.819Z,24.80
2019-04-11T16:42:04.137Z,19.33
2019-04-11T16:44:59.575Z,19.97
2019-04-11T16:47:56.285Z,21.10
2019-04-11T16:50:28.066Z,22.00
2019-04-11T16:52:58.708Z,28.03
2019-04-11T16:55:29.443Z,24.10
2019-04-11T16:57:59.832Z,26.47
2019-04-11T17:00:30.334Z,25.57
2019-04-11T17:03:00.865Z,30.43
2019-04-11T17:05:31.743Z,24.80
2019-04-11T17:08:14.890Z,24.93
2019-04-11T17:11:02.832Z,24.63
2019-04-11T17:13:33.242Z,24.73
2019-04-11T17:16:04.197Z,23.97
2019-04-11T17:18:35.063Z,30.77
2019-04-11T17:21:07.886Z,24.20
2019-04-11T17:23:37.930Z,24.80
2019-04-11T17:26:08.358Z,25.73
2019-04-11T17:28:38.772Z,27.03
2019-04-11T17:31:09.201Z,28.17
2019-04-11T17:33:40.101Z,30.00
2019-04-11T17:36:10.566Z,25.83
2019-04-11T17:38:40.993Z,26.63
2019-04-11T17:41:12.120Z,29.73
2019-04-11T17:43:46.763Z,26.30
2019-04-11T17:46:14.833Z,26.53
2019-04-11T17:48:45.267Z,29.93
2019-04-11T17:51:15.697Z,25.33
2019-04-11T17:53:46.313Z,33.90
2019-04-11T17:56:16.758Z,27.90
2019-04-11T17:58:47.208Z,27.70
2019-04-11T18:01:17.825Z,32.93
2019-04-11T18:03:48.242Z,31.30
2019-04-11T18:06:18.787Z,30.60
2019-04-11T18:08:51.565Z,27.93
2019-04-11T18:11:25.748Z,25.03
2019-04-11T18:13:56.027Z,28.30
2019-04-11T18:16:28.864Z,36.50
2019-04-11T18:18:59.102Z,26.53
2019-04-11T18:21:29.608Z,30.80
2019-04-11T18:24:00.175Z,28.93
2019-04-11T18:26:30.571Z,30.20
2019-04-11T18:29:01.004Z,32.97
2019-04-11T18:31:31.649Z,33.33
2019-04-11T18:34:02.594Z,30.53
2019-04-11T18:36:33.129Z,29.23
2019-04-11T18:39:05.921Z,33.70
2019-04-11T18:41:36.408Z,29.93
2019-04-11T18:44:07.078Z,31.43
2019-04-11T18:46:37.695Z,36.10
2019-04-11T18:49:08.019Z,29.97
2019-04-11T18:51:38.336Z,30.57
2019-04-11T18:54:08.749Z,31.47
2019-04-11T18:56:39.384Z,31.40
2019-04-11T18:59:09.926Z,31.70
2019-04-11T19:01:40.405Z,28.23
2019-04-11T19:04:12.145Z,28.20
2019-04-11T19:06:43.696Z,34.33
2019-04-11T19:09:16.755Z,27.93
2019-04-11T19:11:47.233Z,30.80
2019-04-11T19:14:18.528Z,29.00
2019-04-11T19:16:48.941Z,27.20
2019-04-11T19:19:19.892Z,29.13
2019-04-11T19:21:51.082Z,25.67
2019-04-11T19:24:22.095Z,35.30
2019-04-11T19:26:52.580Z,31.33
2019-04-11T19:29:25.156Z,28.80
2019-04-11T19:31:55.312Z,26.07
2019-04-11T19:34:25.894Z,21.60
2019-04-11T19:36:56.826Z,28.63
2019-04-11T19:39:27.632Z,26.90
2019-04-11T19:41:58.596Z,23.97
2019-04-11T19:44:29.530Z,27.60
2019-04-11T19:47:00.005Z,23.73
2019-04-11T19:49:30.442Z,23.37
2019-04-11T19:52:01.590Z,29.13
2019-04-11T19:54:32.979Z,25.60
2019-04-11T19:57:07.970Z,29.57
2019-04-11T19:59:38.502Z,26.63
2019-04-11T20:02:10.207Z,27.27
2019-04-11T20:04:40.964Z,22.40
2019-04-11T20:07:11.419Z,27.73
2019-04-11T20:09:43.522Z,25.67
2019-04-11T20:12:14.225Z,25.80
2019-04-11T20:14:44.641Z,30.07
2019-04-11T20:17:18.805Z,24.37
2019-04-11T20:19:47.253Z,24.77
2019-04-11T20:22:17.656Z,28.70
2019-04-11T20:24:48.081Z,27.43
2019-04-11T20:27:20.237Z,29.83
2019-04-11T20:29:55.185Z,27.17
2019-04-11T20:32:23.741Z,29.17
2019-04-11T20:34:54.410Z,30.43
2019-04-11T20:37:24.768Z,25.37
2019-04-11T20:39:55.253Z,31.23
2019-04-11T20:42:25.733Z,31.83
2019-04-11T20:44:58.485Z,31.80
2019-04-11T20:47:29.599Z,31.40
2019-04-11T20:50:07.336Z,30.37
2019-04-11T20:52:32.714Z,27.03
2019-04-11T20:55:03.194Z,28.97
2019-04-11T20:57:33.679Z,26.90
2019-04-11T21:00:04.301Z,27.00
2019-04-11T21:02:34.726Z,36.40
2019-04-11T21:05:05.413Z,33.10
2019-04-11T21:07:35.784Z,33.30
2019-04-11T21:10:07.047Z,27.37
2019-04-11T21:12:37.949Z,31.23
2019-04-11T21:15:09.037Z,32.83
2019-04-11T21:17:39.438Z,33.50
2019-04-11T21:20:10.149Z,32.70
2019-04-11T21:22:40.600Z,26.67
2019-04-11T21:25:12.113Z,31.90
2019-04-11T21:27:42.845Z,38.97
2019-04-11T21:30:13.723Z,31.57
2019-04-11T21:32:44.065Z,32.37
2019-04-11T21:35:14.762Z,34.33
2019-04-11T21:37:45.323Z,31.17
2019-04-11T21:40:16.775Z,29.13
2019-04-11T21:42:47.531Z,29.20
2019-04-11T21:45:18.147Z,34.90
2019-04-11T21:47:48.637Z,31.83
2019-04-11T21:50:19.146Z,28.77
2019-04-11T21:52:49.614Z,32.87
2019-04-11T21:55:20.009Z,30.17
2019-04-11T21:57:50.488Z,32.10
2019-04-11T22:00:27.516Z,35.73
2019-04-11T22:02:58.217Z,29.60
2019-04-11T22:05:29.245Z,30.40
2019-04-11T22:08:00.863Z,32.53
2019-04-11T22:10:32.434Z,34.27
2019-04-11T22:13:02.845Z,30.30
2019-04-11T22:15:33.456Z,39.90
2019-04-11T22:18:04.735Z,33.83
2019-04-11T22:20:35.317Z,35.13
2019-04-11T22:23:05.932Z,31.13
2019-04-11T22:25:36.326Z,34.53
2019-04-11T22:28:06.595Z,32.93
2019-04-11T22:30:37.066Z,34.00
2019-04-11T22:33:30.456Z,33.83
2019-04-11T22:36:00.989Z,32.67
2019-04-11T22:38:31.579Z,36.03
2019-04-11T22:41:03.390Z,35.37
2019-04-11T22:43:37.925Z,40.60
2019-04-11T22:46:08.077Z,42.53
2019-04-11T22:48:39.084Z,35.63
2019-04-11T22:51:11.300Z,46.03
2019-04-11T22:53:43.339Z,39.80
2019-04-11T22:56:14.537Z,39.70
2019-04-11T22:58:44.930Z,44.47
2019-04-11T23:01:16.549Z,40.63
2019-04-11T23:03:54.260Z,42.03
2019-04-11T23:06:24.758Z,44.13
2019-04-11T23:08:56.301Z,47.73
2019-04-11T23:11:26.772Z,48.80
2019-04-11T23:13:57.240Z,45.13
2019-04-11T23:16:27.649Z,47.37
2019-04-11T23:18:58.129Z,41.33
2019-04-11T23:21:28.612Z,40.33
2019-04-11T23:23:58.977Z,50.40
2019-04-11T23:26:29.376Z,45.77
2019-04-11T23:28:59.804Z,46.17
2019-04-11T23:31:30.242Z,44.67
2019-04-11T23:34:00.656Z,46.73
2019-04-11T23:36:31.300Z,48.57
2019-04-11T23:39:01.859Z,44.67
2019-04-11T23:41:32.232Z,49.80
2019-04-11T23:44:02.645Z,45.03
2019-04-11T23:46:33.111Z,47.60
2019-04-11T23:49:03.730Z,55.53
2019-04-11T23:51:34.170Z,47.53
2019-04-11T23:54:04.614Z,52.03
2019-04-11T23:56:35.001Z,43.80
2019-04-11T23:59:05.424Z,53.73
